NCAR-RAP Real-Time Weather Data

Output produced by METARs form (20 February 2019  17:06 UTC)
found at http://weather.rap.ucar.edu/surface/
 
RJOK 201100Z 36014KT 9999 FEW025 12/02 Q1018
RJOK 201000Z 36015KT 9999 FEW025 13/02 Q1018
RJOK 200900Z 36014KT 330V030 9999 FEW030 14/01 Q1016
RJOK 200800Z 01010KT 9999 FEW030 17/01 Q1015
RJOK 200700Z 28008KT 9999 FEW035 19/04 Q1015
RJOK 200600Z 25009KT 200V290 9999 FEW035 19/04 Q1014
RJOK 200500Z 26008KT 220V290 9999 FEW035 SCT050 20/05 Q1014
RJOK 200400Z 22010KT 9999 FEW035 19/07 Q1015
RJOK 200300Z 25007KT 190V290 9999 FEW035 19/07 Q1015
RJOK 200200Z 29006KT 240V330 9999 FEW035 18/08 Q1016
RJOK 200100Z 28012KT 9999 FEW035 17/08 Q1016
RJOK 200000Z 28006KT 9999 FEW030 16/10 Q1016
RJOK 192300Z 32006KT 9999 FEW030 11/10 Q1016
RJOK 192200Z 35005KT 9999 FEW002 09/08 Q1015
RJOK 192110Z 32007KT 9999 FEW003 10/09 Q1015 RMK 1ST003 A2999
RJOK 191100Z 32004KT 290V350 9999 SCT015 BKN020 13/11 Q1013
RJOK 191000Z 33004KT 290V360 9999 FEW005 BKN018 14/12 Q1013
RJOK 190900Z 34005KT 9999 FEW003 BKN020 BKN030 13/12 Q1013
RJOK 190800Z 32007KT 9999 FEW001 BKN020 BKN035 13/12 Q1013
RJOK 190700Z 31007KT 270V350 9999 -SHRA FEW002 SCT015 BKN030 13/12 Q1013
RJOK 190600Z 33005KT 9999 -SHRA FEW003 SCT013 BKN030 14/12 Q1013
RJOK 190507Z 34008KT 7000 -SHRA FEW005 SCT010 BKN015 13/11 Q1014 RMK 1ST005 3ST010 6CU015 A2995 P/FR
RJOK 190500Z 33009KT 6000 SHRA FEW003 SCT008 BKN012 12/11 Q1014
RJOK 190438Z 33008KT 4000 SHRA BR FEW003 SCT008 BKN010 13/11 Q1015 RMK 1ST003 3ST008 6ST010 A2999
RJOK 190428Z 34008KT 3500 SHRA BR FEW001 SCT006 BKN008 13/12 Q1015 RMK 1ST001 3ST006 6ST008 A2998
RJOK 190400Z 35007KT 3000 SHRA BR FEW002 SCT006 BKN008 13/12 Q1016
RJOK 190341Z 34006KT 2000 SHRA BR FEW001 SCT005 BKN007 13/12 Q1016 RMK 1ST001 3ST005 5ST007 A3003
RJOK 190319Z 34005KT 320V020 3000 SHRA BR FEW001 SCT003 BKN005 13/11 Q1017 RMK 1ST001 3ST003 5ST005 A3005
RJOK 190312Z 05003KT 320V100 2000 -SHRA BR FEW001 SCT004 BKN006 13/11 Q1017 RMK 1ST001 3ST004 5ST006 A3005
RJOK 190300Z 07004KT 030V100 1400 R32/P1800N -SHRA BR FEW003 BKN007 BKN015 13/12 Q1017
RJOK 190219Z 08006KT 040V110 1800 R32/1800D -SHRA BR FEW003 BKN008 BKN010 13/12 Q1019 RMK 1ST003 5ST008 6ST010 A3010
RJOK 190214Z 08006KT 1800 -SHRA BR FEW003 SCT008 BKN010 13/12 Q1019 RMK 1ST003 3ST008 5ST010 A3011
RJOK 190200Z 09006KT 2500 -SHRA BR FEW003 BKN010 BKN015 13/11 Q1019
RJOK 190135Z 10005KT 030V140 3000 -SHRA BR FEW005 SCT010 BKN013 12/10 Q1020 RMK 1ST005 3ST010 5ST013 A3013
RJOK 190129Z VRB04KT 4000 -SHRA BR FEW005 BKN013 BKN020 12/10 Q1020 RMK 1ST005 5ST013 6CU020 A3013
RJOK 190100Z 36003KT 340V040 9000 -SHRA FEW005 BKN015 BKN020 12/10 Q1020
RJOK 190010Z 01005KT 5000 -SHRA BR FEW003 BKN015 BKN020 11/09 Q1021 RMK 1ST003 5CU015 6CU020 A3016
RJOK 190000Z 35005KT 3500 SHRA BR FEW003 BKN015 BKN020 11/09 Q1021
RJOK 182329Z 36006KT 5000 -SHRA BR FEW003 SCT009 BKN015 10/09 Q1021 RMK 1ST003 3ST009 5CU015 A3018
RJOK 182316Z 33006KT 4000 SHRA BR FEW001 SCT008 BKN010 10/08 Q1022 RMK 1ST001 3ST008 6ST010 A3019
RJOK 182312Z 34006KT 5000 SHRA BR FEW001 SCT008 BKN010 10/08 Q1022 RMK 1ST001 3ST008 6ST010 A3019
RJOK 182300Z 34006KT 6000 -SHRA FEW001 SCT008 BKN010 10/08 Q1022
RJOK 182225Z 34004KT 5000 -SHRA BR FEW003 SCT010 BKN035 09/08 Q1022 RMK 1ST003 3ST010 5CU035 A3020
RJOK 182207Z 33006KT 4000 SHRA BR FEW003 SCT025 BKN035 09/08 Q1022 RMK 1ST003 3CU025 6CU035 A3021
RJOK 182200Z 33008KT 7000 -SHRA FEW003 SCT025 BKN035 09/08 Q1022
RJOK 182110Z 33006KT 7000 -SHRA FEW008 BKN020 BKN030 09/07 Q1023 RMK 1ST008 5CU020 6CU030 A3021
RJOK 181100Z 01003KT 9999 FEW030 SCT050 BKN100 11/04 Q1026
RJOK 181000Z 03003KT 9999 FEW030 BKN100 12/04 Q1025
RJOK 180900Z 21003KT 170V250 9999 FEW030 SCT110 BKN160 12/04 Q1025
RJOK 180800Z 18004KT 130V230 9999 FEW030 BKN120 12/03 Q1024
RJOK 180700Z 15006KT 9999 FEW030 SCT160 BKN/// 13/03 Q1024
RJOK 180600Z 16005KT 120V200 9999 FEW030 BKN/// 13/02 Q1024